createdAt,value
2023-01-30T00:00:22.732Z,5.20
2023-01-30T00:03:20.201Z,6.15
2023-01-30T00:06:18.333Z,6.79
2023-01-30T00:09:15.899Z,6.79
2023-01-30T00:12:13.866Z,5.53
2023-01-30T00:15:11.735Z,4.38
2023-01-30T00:18:09.204Z,3.53
2023-01-30T00:21:07.037Z,2.90
2023-01-30T00:24:04.467Z,2.42
2023-01-30T00:27:02.302Z,2.01
2023-01-30T00:30:03.399Z,1.63
2023-01-30T00:33:01.629Z,1.31
2023-01-30T00:35:59.077Z,1.06
2023-01-30T00:38:56.951Z,0.86
2023-01-30T00:42:11.932Z,0.68
2023-01-30T00:45:27.518Z,0.51
2023-01-30T00:48:24.969Z,1.21
2023-01-30T00:51:22.868Z,3.60
2023-01-30T00:54:20.704Z,4.84
2023-01-30T00:57:18.682Z,5.57
2023-01-30T01:00:17.884Z,5.89
2023-01-30T01:03:15.782Z,5.61
2023-01-30T01:06:13.257Z,4.54
2023-01-30T01:09:11.083Z,3.57
2023-01-30T01:12:08.557Z,2.84
2023-01-30T01:15:06.513Z,2.30
2023-01-30T01:18:03.982Z,1.89
2023-01-30T01:21:01.946Z,1.54
2023-01-30T01:23:59.397Z,1.26
2023-01-30T01:26:57.482Z,1.02
2023-01-30T01:29:55.147Z,0.79
2023-01-30T01:32:52.596Z,0.99
2023-01-30T01:35:50.308Z,2.37
2023-01-30T01:38:48.133Z,3.02
2023-01-30T01:41:45.574Z,3.79
2023-01-30T01:44:43.306Z,4.06
2023-01-30T01:47:40.772Z,4.23
2023-01-30T01:50:38.491Z,4.28
2023-01-30T01:53:35.948Z,4.43
2023-01-30T01:56:33.604Z,4.47
2023-01-30T01:59:31.084Z,3.77
2023-01-30T02:02:28.927Z,3.00
2023-01-30T02:05:26.700Z,2.42
2023-01-30T02:08:24.127Z,1.97
2023-01-30T02:11:21.739Z,1.62
2023-01-30T02:14:19.220Z,1.33
2023-01-30T02:17:16.976Z,1.09
2023-01-30T02:20:14.448Z,0.90
2023-01-30T02:23:12.172Z,0.70
2023-01-30T02:26:10.320Z,1.01
2023-01-30T02:29:07.780Z,2.45
2023-01-30T02:32:05.496Z,2.71
2023-01-30T02:35:02.947Z,2.66
2023-01-30T02:38:00.563Z,2.73
2023-01-30T02:40:58.019Z,3.09
2023-01-30T02:43:55.731Z,3.33
2023-01-30T02:46:53.173Z,3.20
2023-01-30T02:49:50.965Z,3.00
2023-01-30T02:52:48.628Z,2.64
2023-01-30T02:55:46.072Z,2.12
2023-01-30T02:58:43.862Z,1.68
2023-01-30T03:01:41.345Z,1.34
2023-01-30T03:04:39.092Z,1.08
2023-01-30T03:07:36.839Z,0.86
2023-01-30T03:10:34.299Z,0.69
2023-01-30T03:13:32.174Z,0.92
2023-01-30T03:16:29.710Z,2.71
2023-01-30T03:19:27.383Z,4.12
2023-01-30T03:22:24.848Z,4.83
2023-01-30T03:25:22.564Z,4.90
2023-01-30T03:28:20.279Z,5.32
2023-01-30T03:31:17.818Z,5.76
2023-01-30T03:34:15.522Z,5.75
2023-01-30T03:37:12.955Z,4.77
2023-01-30T03:40:10.772Z,3.84
2023-01-30T03:43:08.388Z,3.12
2023-01-30T03:46:06.193Z,2.59
2023-01-30T03:49:03.632Z,2.17
2023-01-30T03:52:01.481Z,1.82
2023-01-30T03:54:59.174Z,1.53
2023-01-30T03:57:56.599Z,1.26
2023-01-30T04:00:55.990Z,1.02
2023-01-30T04:03:53.587Z,0.83
2023-01-30T04:06:51.247Z,0.67
2023-01-30T04:09:48.669Z,0.53
2023-01-30T04:12:46.390Z,0.56
2023-01-30T04:15:44.143Z,1.18
2023-01-30T04:18:41.563Z,1.58
2023-01-30T04:21:39.275Z,1.99
2023-01-30T04:24:36.706Z,2.24
2023-01-30T04:27:34.324Z,2.50
2023-01-30T04:30:31.797Z,2.75
2023-01-30T04:33:29.524Z,2.76
2023-01-30T04:36:29.531Z,2.68
2023-01-30T04:39:26.973Z,2.65
2023-01-30T04:42:24.646Z,2.90
2023-01-30T04:45:22.073Z,3.26
2023-01-30T04:48:19.914Z,3.41
2023-01-30T04:51:17.599Z,3.71
2023-01-30T04:54:15.015Z,3.74
2023-01-30T04:57:12.692Z,3.70
2023-01-30T05:00:10.182Z,3.71
2023-01-30T05:03:08.055Z,3.92
2023-01-30T05:06:05.491Z,4.25
2023-01-30T05:09:03.259Z,4.53
2023-01-30T05:12:01.021Z,4.59
2023-01-30T05:14:58.552Z,3.91
2023-01-30T05:17:56.236Z,3.20
2023-01-30T05:20:53.666Z,2.69
2023-01-30T05:23:51.465Z,2.28
2023-01-30T05:26:48.939Z,1.96
2023-01-30T05:29:46.663Z,1.70
2023-01-30T05:32:44.120Z,1.48
2023-01-30T05:35:41.916Z,1.29
2023-01-30T05:38:39.670Z,1.13
2023-01-30T05:41:37.381Z,1.00
2023-01-30T05:44:35.113Z,0.89
2023-01-30T05:47:32.555Z,1.03
2023-01-30T05:50:30.222Z,2.19
2023-01-30T05:53:28.294Z,3.07
2023-01-30T05:56:25.981Z,3.92
2023-01-30T05:59:23.406Z,4.80
2023-01-30T06:02:21.170Z,5.12
2023-01-30T06:05:18.847Z,5.89
2023-01-30T06:08:17.049Z,6.61
2023-01-30T06:11:14.789Z,7.13
2023-01-30T06:14:12.226Z,6.88
2023-01-30T06:17:09.944Z,5.80
2023-01-30T06:20:07.440Z,4.90
2023-01-30T06:23:05.180Z,4.24
2023-01-30T06:26:04.924Z,3.69
2023-01-30T06:29:03.429Z,3.25
2023-01-30T06:32:01.075Z,2.86
2023-01-30T06:34:58.700Z,2.51
2023-01-30T06:37:56.481Z,2.23
2023-01-30T06:40:53.898Z,1.99
2023-01-30T06:43:51.510Z,1.81
2023-01-30T06:46:48.937Z,1.68
2023-01-30T06:49:46.862Z,1.55
2023-01-30T06:52:44.349Z,1.46
2023-01-30T06:55:42.004Z,1.38
2023-01-30T06:58:39.701Z,1.33
2023-01-30T07:01:37.518Z,1.30
2023-01-30T07:04:35.351Z,1.29
2023-01-30T07:07:32.762Z,1.30
2023-01-30T07:10:32.723Z,1.31
2023-01-30T07:13:30.147Z,1.32
2023-01-30T07:16:29.815Z,1.35
2023-01-30T07:19:27.387Z,1.38
2023-01-30T07:22:25.215Z,1.43
2023-01-30T07:25:22.927Z,1.47
2023-01-30T07:28:20.351Z,1.52
2023-01-30T07:31:18.102Z,1.59
2023-01-30T07:34:15.578Z,1.67
2023-01-30T07:37:13.177Z,1.75
2023-01-30T07:40:10.609Z,1.84
2023-01-30T07:43:08.356Z,1.93
2023-01-30T07:46:05.769Z,2.02
2023-01-30T07:49:03.380Z,2.12
2023-01-30T07:52:01.101Z,2.21
2023-01-30T07:55:00.573Z,2.27
2023-01-30T07:57:59.127Z,2.33
2023-01-30T08:00:56.672Z,2.40
2023-01-30T08:03:54.473Z,2.49
2023-01-30T08:06:52.807Z,2.59
2023-01-30T08:09:50.409Z,2.65
2023-01-30T08:12:47.884Z,2.71
2023-01-30T08:15:45.626Z,2.74
2023-01-30T08:18:43.215Z,2.78
2023-01-30T08:21:40.957Z,2.81
2023-01-30T08:24:38.638Z,2.85
2023-01-30T08:27:36.077Z,2.88
2023-01-30T08:30:33.905Z,2.92
2023-01-30T08:33:31.325Z,2.98
2023-01-30T08:36:29.067Z,3.08
2023-01-30T08:39:26.503Z,3.21
2023-01-30T08:42:24.105Z,3.32
2023-01-30T08:45:21.503Z,3.44
2023-01-30T08:48:19.216Z,3.57
2023-01-30T08:51:17.003Z,3.65
2023-01-30T08:54:14.477Z,3.74
2023-01-30T08:57:12.164Z,3.83
2023-01-30T09:00:09.600Z,3.92
2023-01-30T09:03:07.356Z,4.05
2023-01-30T09:06:04.806Z,4.19
2023-01-30T09:09:02.472Z,4.28
2023-01-30T09:11:59.911Z,4.31
2023-01-30T09:14:58.833Z,4.32
2023-01-30T09:17:56.605Z,4.36
2023-01-30T09:20:54.027Z,4.45
2023-01-30T09:23:51.624Z,4.51
2023-01-30T09:26:49.104Z,4.55
2023-01-30T09:29:47.305Z,4.62
2023-01-30T09:32:44.742Z,4.67
2023-01-30T09:35:42.702Z,4.69
2023-01-30T09:38:40.158Z,4.67
2023-01-30T09:41:37.930Z,4.64
2023-01-30T09:44:35.353Z,4.60
2023-01-30T09:47:33.152Z,4.57
2023-01-30T09:50:30.916Z,4.55
2023-01-30T09:53:28.903Z,4.51
2023-01-30T09:56:26.647Z,4.48
2023-01-30T09:59:24.088Z,4.45
2023-01-30T10:02:21.714Z,4.40
2023-01-30T10:05:19.167Z,4.28
2023-01-30T10:08:17.214Z,4.18
2023-01-30T10:11:14.962Z,4.12
2023-01-30T10:14:12.401Z,4.08
2023-01-30T10:17:10.112Z,4.10
2023-01-30T10:20:07.643Z,4.18
2023-01-30T10:23:05.340Z,4.42
2023-01-30T10:26:02.780Z,4.74
2023-01-30T10:29:07.395Z,5.12
2023-01-30T10:32:05.920Z,5.47
2023-01-30T10:35:03.369Z,5.65
2023-01-30T10:38:01.126Z,5.72
2023-01-30T10:40:58.579Z,5.76
2023-01-30T10:43:56.186Z,5.78
2023-01-30T10:46:53.953Z,5.82
2023-01-30T10:49:51.585Z,5.90
2023-01-30T10:52:49.460Z,5.97
2023-01-30T10:55:46.907Z,6.07
2023-01-30T10:58:44.689Z,6.17
2023-01-30T11:01:42.196Z,6.25
2023-01-30T11:04:40.017Z,6.26
2023-01-30T11:07:37.781Z,6.28
2023-01-30T11:10:35.859Z,6.33
2023-01-30T11:13:33.562Z,6.35
2023-01-30T11:16:31.026Z,6.32
2023-01-30T11:19:28.844Z,6.34
2023-01-30T11:22:27.149Z,6.34
2023-01-30T11:25:24.760Z,6.30
2023-01-30T11:28:22.848Z,6.27
2023-01-30T11:31:31.574Z,6.24
2023-01-30T11:34:36.938Z,6.20
2023-01-30T11:37:34.359Z,6.16
2023-01-30T11:40:32.672Z,6.15
2023-01-30T11:43:30.443Z,6.16
2023-01-30T11:46:28.941Z,6.18
2023-01-30T11:49:45.912Z,6.17
2023-01-30T11:52:44.084Z,6.18
2023-01-30T11:55:45.030Z,6.20
2023-01-30T11:58:49.812Z,6.21
2023-01-30T12:01:47.543Z,6.22
2023-01-30T12:04:45.554Z,6.22
2023-01-30T12:07:43.000Z,6.22
2023-01-30T12:10:40.852Z,6.24
2023-01-30T12:13:38.296Z,6.27
2023-01-30T12:16:36.114Z,6.31
2023-01-30T12:19:33.849Z,6.38
2023-01-30T12:22:31.505Z,6.53
2023-01-30T12:25:28.947Z,6.74
2023-01-30T12:28:27.592Z,6.93
2023-01-30T12:31:25.857Z,7.01
2023-01-30T12:34:27.078Z,7.02
2023-01-30T12:37:25.584Z,6.98
2023-01-30T12:40:23.047Z,6.93
2023-01-30T12:43:21.612Z,6.84
2023-01-30T12:46:19.095Z,6.76
2023-01-30T12:49:16.731Z,6.66
2023-01-30T12:52:14.191Z,6.58
2023-01-30T12:55:11.966Z,6.50
2023-01-30T12:58:09.928Z,6.41
2023-01-30T13:01:07.588Z,6.33
2023-01-30T13:04:05.368Z,6.25
2023-01-30T13:07:02.798Z,6.18
2023-01-30T13:10:00.905Z,6.14
2023-01-30T13:12:58.520Z,6.08
2023-01-30T13:15:55.987Z,5.99
2023-01-30T13:18:54.192Z,5.89
2023-01-30T13:21:51.970Z,5.77
2023-01-30T13:24:49.680Z,5.63
2023-01-30T13:27:47.165Z,5.49
2023-01-30T13:30:44.981Z,5.35
2023-01-30T13:33:43.828Z,5.22
2023-01-30T13:36:42.700Z,5.12
2023-01-30T13:39:42.594Z,5.03
2023-01-30T13:42:40.192Z,5.12
2023-01-30T13:45:38.936Z,5.76
2023-01-30T13:48:36.378Z,6.35
2023-01-30T13:51:34.208Z,6.42
2023-01-30T13:54:31.667Z,6.57
2023-01-30T13:57:29.496Z,7.14
2023-01-30T14:00:27.339Z,7.57
2023-01-30T14:03:25.384Z,7.79
2023-01-30T14:06:23.197Z,7.75
2023-01-30T14:09:20.618Z,7.74
2023-01-30T14:12:18.414Z,8.35
2023-01-30T14:15:16.264Z,9.07
2023-01-30T14:18:14.251Z,9.20
2023-01-30T14:21:11.676Z,8.96
2023-01-30T14:24:09.306Z,7.99
2023-01-30T14:27:09.099Z,7.01
2023-01-30T14:30:07.379Z,6.29
2023-01-30T14:33:05.146Z,5.74
2023-01-30T14:36:02.707Z,5.34
2023-01-30T14:39:00.317Z,5.05
2023-01-30T14:41:57.762Z,4.92
2023-01-30T14:44:55.665Z,5.14
2023-01-30T14:47:53.185Z,6.17
2023-01-30T14:50:50.940Z,7.78
2023-01-30T14:53:48.633Z,8.29
2023-01-30T14:56:46.072Z,9.03
2023-01-30T14:59:44.732Z,9.87
2023-01-30T15:02:43.786Z,9.87
2023-01-30T15:05:41.699Z,8.81
2023-01-30T15:08:39.141Z,7.81
2023-01-30T15:11:36.739Z,7.08
2023-01-30T15:14:34.495Z,6.48
2023-01-30T15:17:31.945Z,6.01
2023-01-30T15:20:29.721Z,5.63
2023-01-30T15:23:27.197Z,5.32
2023-01-30T15:26:25.405Z,5.63
2023-01-30T15:29:24.198Z,6.91
2023-01-30T15:32:21.955Z,7.32
2023-01-30T15:35:20.853Z,7.50
2023-01-30T15:38:18.666Z,7.66
2023-01-30T15:41:16.442Z,7.73
2023-01-30T15:44:13.898Z,8.09
2023-01-30T15:47:11.654Z,8.18
2023-01-30T15:50:09.146Z,7.41
2023-01-30T15:53:07.713Z,6.61
2023-01-30T15:56:05.152Z,6.04
2023-01-30T15:59:02.768Z,5.61
2023-01-30T16:02:00.246Z,5.28
2023-01-30T16:04:57.960Z,5.02
2023-01-30T16:07:55.712Z,4.81
2023-01-30T16:10:53.397Z,4.97
2023-01-30T16:13:51.052Z,6.31
2023-01-30T16:16:48.865Z,6.79
2023-01-30T16:19:46.874Z,6.98
2023-01-30T16:22:46.547Z,6.97
2023-01-30T16:25:44.949Z,6.91
2023-01-30T16:28:43.035Z,6.90
2023-01-30T16:31:41.297Z,6.90
2023-01-30T16:34:39.071Z,7.13
2023-01-30T16:37:36.493Z,7.59
2023-01-30T16:40:34.854Z,7.70
2023-01-30T16:43:32.698Z,7.63
2023-01-30T16:46:31.177Z,7.05
2023-01-30T16:49:29.275Z,6.40
2023-01-30T16:52:29.120Z,5.89
2023-01-30T16:55:27.520Z,5.51
2023-01-30T16:58:27.957Z,5.23
2023-01-30T17:01:25.844Z,5.07
2023-01-30T17:04:23.385Z,5.08
2023-01-30T17:07:21.023Z,5.08
2023-01-30T17:10:19.041Z,5.19
2023-01-30T17:13:17.679Z,5.54
2023-01-30T17:16:16.475Z,5.69
2023-01-30T17:19:14.543Z,5.76
2023-01-30T17:22:13.803Z,5.84
2023-01-30T17:25:11.332Z,6.17
2023-01-30T17:28:09.008Z,6.42
2023-01-30T17:31:08.768Z,6.47
2023-01-30T17:34:06.364Z,6.60
2023-01-30T17:37:04.093Z,6.69
2023-01-30T17:40:01.632Z,6.73
2023-01-30T17:42:59.929Z,6.88
2023-01-30T17:45:58.882Z,6.95
2023-01-30T17:48:57.527Z,6.93
2023-01-30T17:51:56.317Z,7.45
2023-01-30T17:54:54.526Z,7.74
2023-01-30T17:57:54.310Z,7.30
2023-01-30T18:00:54.264Z,6.62
2023-01-30T18:03:52.195Z,6.04
2023-01-30T18:06:50.891Z,5.61
2023-01-30T18:09:48.745Z,5.26
2023-01-30T18:12:47.322Z,4.97
2023-01-30T18:15:45.319Z,4.80
2023-01-30T18:18:44.108Z,4.84
2023-01-30T18:21:45.202Z,4.82
2023-01-30T18:24:44.611Z,4.78
2023-01-30T18:27:44.429Z,4.78
2023-01-30T18:30:44.549Z,4.78
2023-01-30T18:33:45.361Z,4.76
2023-01-30T18:36:46.885Z,4.73
2023-01-30T18:39:45.473Z,4.71
2023-01-30T18:42:43.976Z,4.67
2023-01-30T18:45:42.953Z,4.66
2023-01-30T18:48:41.464Z,4.67
2023-01-30T18:51:41.638Z,4.67
2023-01-30T18:54:42.911Z,4.68
2023-01-30T18:57:41.230Z,4.78
2023-01-30T19:00:40.269Z,4.78
2023-01-30T19:03:38.977Z,4.77
2023-01-30T19:06:37.888Z,4.75
2023-01-30T19:09:38.915Z,4.74
2023-01-30T19:12:55.014Z,4.73
2023-01-30T19:15:53.740Z,4.72
2023-01-30T19:18:52.604Z,4.72
2023-01-30T19:21:53.380Z,4.73
2023-01-30T19:24:52.636Z,4.74
2023-01-30T19:27:51.315Z,4.76
2023-01-30T19:30:49.456Z,4.76
2023-01-30T19:33:49.156Z,4.78
2023-01-30T19:36:47.299Z,4.78
2023-01-30T19:39:50.583Z,4.80
2023-01-30T19:42:54.760Z,4.84
2023-01-30T19:45:55.639Z,4.83
2023-01-30T19:48:54.318Z,4.80
2023-01-30T19:51:53.120Z,4.79
2023-01-30T19:54:54.497Z,4.78
2023-01-30T19:57:55.315Z,4.77
2023-01-30T20:00:54.613Z,4.75
2023-01-30T20:03:56.345Z,4.73
2023-01-30T20:06:54.755Z,4.72
2023-01-30T20:09:53.861Z,4.71
2023-01-30T20:12:54.694Z,4.69
2023-01-30T20:15:57.756Z,4.67
2023-01-30T20:18:55.859Z,4.64
2023-01-30T20:21:54.658Z,4.61
2023-01-30T20:24:53.439Z,4.58
2023-01-30T20:27:51.793Z,4.55
2023-01-30T20:30:50.115Z,4.52
2023-01-30T20:33:49.918Z,4.49
2023-01-30T20:36:48.815Z,4.48
2023-01-30T20:39:51.703Z,4.46
2023-01-30T20:42:50.535Z,4.46
2023-01-30T20:45:48.666Z,4.47
2023-01-30T20:48:47.312Z,4.49
2023-01-30T20:51:46.189Z,4.48
2023-01-30T20:54:44.935Z,4.47
2023-01-30T20:57:44.316Z,4.47
2023-01-30T21:00:43.554Z,4.45
2023-01-30T21:03:42.873Z,4.43
2023-01-30T21:06:44.058Z,4.42
2023-01-30T21:09:43.195Z,4.43
2023-01-30T21:12:41.210Z,4.44
2023-01-30T21:15:40.505Z,4.47
2023-01-30T21:18:39.368Z,4.49
2023-01-30T21:21:37.086Z,4.49
2023-01-30T21:24:35.608Z,4.48
2023-01-30T21:27:33.986Z,4.47
2023-01-30T21:30:32.872Z,4.44
2023-01-30T21:33:30.729Z,4.42
2023-01-30T21:36:28.519Z,4.40
2023-01-30T21:39:43.631Z,4.40
2023-01-30T21:42:58.838Z,4.39
2023-01-30T21:45:57.068Z,4.38
2023-01-30T21:48:54.740Z,4.38
2023-01-30T21:51:52.681Z,4.38
2023-01-30T21:54:50.162Z,4.38
2023-01-30T21:57:47.902Z,4.37
2023-01-30T22:00:45.593Z,4.37
2023-01-30T22:03:43.196Z,4.36
2023-01-30T22:06:40.889Z,4.36
2023-01-30T22:09:38.789Z,4.36
2023-01-30T22:12:36.653Z,4.34
2023-01-30T22:15:34.180Z,4.32
2023-01-30T22:18:31.871Z,4.31
2023-01-30T22:21:29.408Z,4.31
2023-01-30T22:24:27.135Z,4.31
2023-01-30T22:27:24.838Z,4.31
2023-01-30T22:30:22.288Z,4.32
2023-01-30T22:33:20.650Z,4.32
2023-01-30T22:36:18.148Z,4.32
2023-01-30T22:39:15.887Z,4.33
2023-01-30T22:42:13.421Z,4.33
2023-01-30T22:45:11.277Z,4.34
2023-01-30T22:48:08.943Z,4.36
2023-01-30T22:51:06.387Z,4.43
2023-01-30T22:54:04.170Z,4.49
2023-01-30T22:57:01.615Z,4.53
2023-01-30T22:59:59.344Z,4.55
2023-01-30T23:02:56.774Z,4.56
2023-01-30T23:05:54.499Z,4.58
2023-01-30T23:08:52.259Z,4.62
2023-01-30T23:12:10.097Z,4.68
2023-01-30T23:15:07.872Z,4.69
2023-01-30T23:18:22.945Z,5.06
2023-01-30T23:21:20.721Z,5.56
2023-01-30T23:24:18.180Z,6.01
2023-01-30T23:27:15.944Z,6.73
2023-01-30T23:30:13.712Z,7.24
2023-01-30T23:33:11.150Z,8.34
2023-01-30T23:36:08.977Z,9.03
2023-01-30T23:39:06.496Z,9.15
2023-01-30T23:42:04.129Z,9.37
2023-01-30T23:45:01.588Z,9.70
2023-01-30T23:47:59.388Z,9.60
2023-01-30T23:50:57.086Z,8.58
2023-01-30T23:53:54.521Z,7.62
2023-01-30T23:56:52.153Z,6.88
2023-01-30T23:59:49.593Z,6.26
